Time;durP1;ratioP1;P1;durP2;ratioP2;P2;SDS_P1;SDS_P2;PMS_P1;PMS_P2;Temp;Humidity;BMP_temperature;BMP_pressure;BME280_temperature;BME280_humidity;BME280_pressure;Samples;Min_cycle;Max_cycle;Signal;HPM_P1;HPM_P2
2020/12/10 00:01:36;;;;;;;23.83;10.65;;;;;;;3.16;85.71;100399.19;5105728;28;20093;-71
2020/12/10 00:04:02;;;;;;;29.17;12.23;;;;;;;3.08;85.85;100388.75;5105916;28;20032;-71
2020/12/10 00:06:28;;;;;;;20.13;8.93;;;;;;;3.09;86.10;100388.78;5105917;28;20036;-72
2020/12/10 00:08:53;;;;;;;24.25;10.90;;;;;;;3.08;86.03;100394.72;5105753;28;20082;-70
2020/12/10 00:11:18;;;;;;;35.25;12.70;;;;;;;3.16;85.62;100396.63;5105902;28;20120;-71
2020/12/10 00:13:44;;;;;;;21.92;9.13;;;;;;;3.06;85.92;100387.84;5105842;28;20150;-71
2020/12/10 00:16:11;;;;;;;37.85;13.07;;;;;;;2.97;86.50;100394.50;5105709;28;20073;-71
2020/12/10 00:18:37;;;;;;;27.33;8.60;;;;;;;3.17;85.64;100377.81;5105862;28;20020;-71
2020/12/10 00:21:02;;;;;;;16.50;7.63;;;;;;;3.27;85.36;100377.19;5105609;28;20035;-71
2020/12/10 00:23:27;;;;;;;32.17;13.43;;;;;;;2.97;86.06;100386.81;5105318;28;20089;-71
2020/12/10 00:25:53;;;;;;;34.78;14.40;;;;;;;2.94;86.63;100391.88;5105306;28;20876;-70
2020/12/10 00:28:19;;;;;;;33.88;13.75;;;;;;;2.89;87.02;100396.00;5105494;28;20020;-72
2020/12/10 00:30:44;;;;;;;33.80;13.20;;;;;;;2.93;87.09;100399.53;5106044;28;20031;-70
2020/12/10 00:33:10;;;;;;;36.58;13.80;;;;;;;2.97;86.50;100397.06;5105473;28;20024;-71
2020/12/10 00:35:35;;;;;;;26.52;11.27;;;;;;;2.92;86.96;100387.53;5104139;28;20480;-71
2020/12/10 00:38:21;;;;;;;23.55;10.45;;;;;;;3.09;85.78;100393.03;5105054;28;20054;-71
2020/12/10 00:40:46;;;;;;;18.10;7.70;;;;;;;2.99;86.20;100397.09;5105640;28;20032;-72
2020/12/10 00:43:12;;;;;;;17.45;6.95;;;;;;;3.09;86.40;100387.91;5105122;28;20020;-70
2020/12/10 00:45:37;;;;;;;25.67;10.57;;;;;;;3.00;85.99;100374.88;5105332;28;20031;-70
2020/12/10 00:48:02;;;;;;;21.40;7.82;;;;;;;3.10;86.05;100390.50;5105249;28;20028;-70
2020/12/10 00:50:28;;;;;;;9.98;5.32;;;;;;;3.28;85.66;100388.31;5105268;28;20109;-70
2020/12/10 00:52:54;;;;;;;30.15;12.68;;;;;;;3.07;85.89;100389.56;5102815;28;20016;-71
2020/12/10 00:55:19;;;;;;;31.70;11.95;;;;;;;3.05;85.91;100396.38;5105081;28;20348;-69
2020/12/10 00:57:44;;;;;;;16.75;7.72;;;;;;;3.32;85.09;100387.56;5103598;28;20028;-69
2020/12/10 01:00:11;;;;;;;19.40;7.88;;;;;;;3.24;85.13;100389.97;5105027;28;20020;-70
2020/12/10 01:02:37;;;;;;;23.60;8.55;;;;;;;3.28;84.87;100394.31;5104816;28;20093;-70
2020/12/10 01:05:04;;;;;;;32.25;13.02;;;;;;;2.97;86.33;100399.63;5104848;28;20032;-70
2020/12/10 01:07:29;;;;;;;37.70;15.05;;;;;;;3.00;86.66;100405.66;5104540;28;20072;-69
2020/12/10 01:09:54;;;;;;;30.70;12.15;;;;;;;2.93;87.02;100394.41;5104509;28;20012;-71
2020/12/10 01:12:20;;;;;;;24.98;10.13;;;;;;;3.17;85.50;100390.66;5104780;28;20189;-69
2020/12/10 01:14:45;;;;;;;33.13;13.38;;;;;;;3.14;86.16;100398.28;5104751;28;20023;-69
2020/12/10 01:17:10;;;;;;;38.58;14.75;;;;;;;3.02;86.68;100389.47;5104532;28;20034;-69
2020/12/10 01:19:36;;;;;;;40.85;15.80;;;;;;;2.96;86.98;100391.91;5104768;28;20027;-69
2020/12/10 01:22:01;;;;;;;17.50;8.30;;;;;;;3.21;86.17;100397.59;5104612;28;20024;-69
2020/12/10 01:24:26;;;;;;;29.08;11.60;;;;;;;3.24;86.15;100392.53;5104213;28;20024;-69
2020/12/10 01:26:52;;;;;;;22.75;9.52;;;;;;;3.37;85.10;100395.34;5104416;28;20048;-69
2020/12/10 01:29:17;;;;;;;23.38;8.77;;;;;;;3.32;85.50;100390.13;5104584;28;20031;-69
2020/12/10 01:31:46;;;;;;;54.33;20.40;;;;;;;3.09;86.14;100400.75;5104431;28;20039;-69
2020/12/10 01:34:12;;;;;;;46.10;13.90;;;;;;;3.11;86.53;100401.66;5103008;28;20035;-70
2020/12/10 01:36:37;;;;;;;44.85;15.50;;;;;;;2.99;87.02;100389.41;5104254;28;20048;-69
2020/12/10 01:39:03;;;;;;;30.60;11.43;;;;;;;3.07;87.17;100393.00;5103741;28;20106;-68
2020/12/10 01:41:32;;;;;;;45.25;18.48;;;;;;;3.04;87.15;100400.63;5104016;28;20028;-69
2020/12/10 01:44:12;;;;;;;50.60;16.73;;;;;;;3.12;86.85;100393.13;5103976;28;20046;-69
2020/12/10 01:46:39;;;;;;;49.20;18.85;;;;;;;3.16;86.52;100389.81;5102389;28;20488;-69
2020/12/10 01:49:06;;;;;;;50.42;19.95;;;;;;;3.12;86.59;100381.97;5104004;28;20035;-69
2020/12/10 01:51:33;;;;;;;53.42;16.88;;;;;;;3.10;86.93;100393.06;5104060;28;20027;-69
2020/12/10 01:53:59;;;;;;;61.92;21.67;;;;;;;3.03;87.35;100392.91;5103541;28;20027;-69
2020/12/10 01:56:24;;;;;;;55.03;17.75;;;;;;;3.04;87.35;100387.81;5103923;28;20020;-69
2020/12/10 01:58:49;;;;;;;56.38;17.10;;;;;;;3.23;86.39;100388.22;5102571;28;20048;-68
2020/12/10 02:01:15;;;;;;;54.15;18.42;;;;;;;3.24;86.23;100381.38;5103608;28;20062;-69
2020/12/10 02:03:41;;;;;;;36.58;12.40;;;;;;;3.21;86.27;100366.81;5103161;28;20080;-69
2020/12/10 02:06:06;;;;;;;54.83;20.73;;;;;;;3.05;87.19;100374.16;5102358;28;20016;-69
2020/12/10 02:08:32;;;;;;;42.75;15.13;;;;;;;3.06;87.43;100364.75;5103552;28;20374;-69
2020/12/10 02:10:57;;;;;;;25.77;11.60;;;;;;;3.17;86.76;100365.00;5103801;28;20055;-69
2020/12/10 02:13:22;;;;;;;75.45;24.30;;;;;;;3.02;87.28;100361.25;5103851;28;20028;-69
2020/12/10 02:15:51;;;;;;;49.95;16.88;;;;;;;3.20;86.79;100360.78;5103711;28;20020;-69
2020/12/10 02:18:17;;;;;;;54.40;20.98;;;;;;;3.19;86.58;100364.22;5102403;28;20048;-69
2020/12/10 02:20:44;;;;;;;22.10;10.00;;;;;;;3.50;85.35;100369.09;5103854;28;20038;-69
2020/12/10 02:23:11;;;;;;;44.42;14.52;;;;;;;3.28;85.70;100362.66;5103211;28;20044;-69
2020/12/10 02:25:37;;;;;;;70.32;22.55;;;;;;;3.04;87.16;100368.97;5103730;28;20024;-68
2020/12/10 02:28:05;;;;;;;33.33;12.20;;;;;;;3.35;86.24;100365.38;5103185;28;20028;-67
2020/12/10 02:30:30;;;;;;;38.47;12.38;;;;;;;3.24;86.45;100359.16;5103454;28;20024;-67
2020/12/10 02:33:00;;;;;;;56.05;19.73;;;;;;;3.22;86.58;100366.84;5102030;28;20025;-68
2020/12/10 02:35:27;;;;;;;48.90;15.52;;;;;;;3.08;87.44;100369.09;5104006;28;20024;-68
2020/12/10 02:37:55;;;;;;;55.60;18.73;;;;;;;3.08;87.52;100369.09;5103111;28;20168;-68
2020/12/10 02:40:21;;;;;;;69.20;21.23;;;;;;;3.12;87.18;100362.31;5104043;28;20028;-69
2020/12/10 02:42:46;;;;;;;72.35;22.75;;;;;;;3.11;87.56;100360.59;5103253;28;20016;-68
2020/12/10 02:45:11;;;;;;;30.92;10.45;;;;;;;3.20;87.21;100365.06;5103272;28;20039;-68
2020/12/10 02:47:37;;;;;;;61.95;21.08;;;;;;;3.15;87.55;100359.81;5101880;28;20020;-69
2020/12/10 02:50:03;;;;;;;27.90;11.65;;;;;;;3.42;85.98;100361.22;5103211;28;20111;-68
2020/12/10 02:52:28;;;;;;;66.05;22.55;;;;;;;3.21;86.76;100354.81;5103188;28;20020;-68
2020/12/10 02:54:54;;;;;;;76.57;26.23;;;;;;;3.15;87.44;100358.94;5102798;28;20016;-68
2020/12/10 02:57:19;;;;;;;77.15;24.15;;;;;;;3.18;87.19;100349.63;5102905;28;20079;-67
2020/12/10 02:59:44;;;;;;;61.58;22.20;;;;;;;3.19;87.25;100351.38;5103381;28;20039;-70
2020/12/10 03:02:10;;;;;;;60.38;20.52;;;;;;;3.41;86.07;100350.94;5102806;28;20101;-67
2020/12/10 03:04:35;;;;;;;81.00;27.35;;;;;;;3.19;87.21;100345.38;5103038;28;20028;-67
2020/12/10 03:07:00;;;;;;;52.22;16.77;;;;;;;3.25;86.88;100344.63;5103124;28;20016;-69
2020/12/10 03:09:26;;;;;;;39.63;14.88;;;;;;;3.46;85.71;100339.94;5102576;28;20504;-68
2020/12/10 03:11:51;;;;;;;74.20;26.13;;;;;;;3.25;86.59;100348.06;5102760;28;20049;-68
2020/12/10 03:14:17;;;;;;;43.58;15.32;;;;;;;3.28;86.66;100355.81;5101701;28;20036;-68
2020/12/10 03:16:42;;;;;;;49.90;17.58;;;;;;;3.36;86.49;100350.84;5106472;28;20028;-68
2020/12/10 03:19:07;;;;;;;68.05;20.77;;;;;;;3.32;86.36;100346.50;5106588;28;20032;-67
2020/12/10 03:21:33;;;;;;;69.40;24.50;;;;;;;3.29;86.69;100343.88;5106657;28;20020;-68
2020/12/10 03:23:58;;;;;;;64.32;21.15;;;;;;;3.34;86.44;100357.63;5104997;28;20081;-68
2020/12/10 03:26:23;;;;;;;75.65;26.05;;;;;;;3.37;86.14;100355.13;5106462;28;20032;-68
2020/12/10 03:28:49;;;;;;;81.90;27.25;;;;;;;3.25;86.84;100352.31;5106318;28;20020;-68
2020/12/10 03:31:14;;;;;;;72.38;23.58;;;;;;;3.55;85.12;100346.06;5106626;28;20027;-67
2020/12/10 03:33:39;;;;;;;64.47;22.13;;;;;;;3.37;85.82;100350.00;5106156;28;20012;-69
2020/12/10 03:36:05;;;;;;;84.78;29.42;;;;;;;3.26;86.51;100341.25;5106540;28;20085;-67
2020/12/10 03:38:30;;;;;;;37.47;14.82;;;;;;;3.57;85.45;100349.53;5106239;28;20028;-68
2020/12/10 03:40:55;;;;;;;77.32;25.73;;;;;;;3.35;85.85;100339.69;5106465;28;20042;-68
2020/12/10 03:43:21;;;;;;;63.95;26.13;;;;;;;3.32;86.10;100341.38;5106493;28;20082;-68
2020/12/10 03:45:46;;;;;;;36.10;13.60;;;;;;;3.59;85.04;100347.88;5104972;28;20040;-68
2020/12/10 03:48:11;;;;;;;60.28;20.40;;;;;;;3.39;85.66;100342.34;5106298;28;20022;-69
2020/12/10 03:50:37;;;;;;;35.40;13.90;;;;;;;3.44;85.49;100333.91;5106357;28;20427;-69
2020/12/10 03:53:02;;;;;;;66.40;23.75;;;;;;;3.27;86.07;100331.00;5105867;28;20044;-69
2020/12/10 03:55:27;;;;;;;59.17;23.88;;;;;;;3.39;85.75;100335.50;5106184;28;20516;-70
2020/12/10 03:57:53;;;;;;;58.42;22.35;;;;;;;3.35;85.95;100339.69;5104672;28;20050;-72
2020/12/10 04:00:20;;;;;;;47.00;19.98;;;;;;;3.38;85.85;100344.06;5106059;28;20060;-72
2020/12/10 04:02:46;;;;;;;70.10;24.67;;;;;;;3.37;85.55;100336.31;5105729;28;20040;-71
2020/12/10 04:05:11;;;;;;;64.88;24.63;;;;;;;3.42;85.55;100345.84;5104838;28;20394;-73
2020/12/10 04:07:36;;;;;;;52.35;19.02;;;;;;;3.41;85.37;100346.69;5105849;28;20389;-71
2020/12/10 04:10:02;;;;;;;18.48;8.95;;;;;;;3.38;85.72;100351.75;5105711;28;20043;-70
2020/12/10 04:12:27;;;;;;;41.50;15.98;;;;;;;3.56;84.53;100345.25;5104701;28;20028;-70
2020/12/10 04:14:53;;;;;;;43.72;17.40;;;;;;;3.56;84.05;100332.41;5105907;28;20016;-70
2020/12/10 04:17:18;;;;;;;35.40;13.93;;;;;;;3.55;84.31;100339.25;5105769;28;20027;-72
2020/12/10 04:19:44;;;;;;;42.10;14.43;;;;;;;3.43;84.79;100337.31;5104280;28;20491;-71
2020/12/10 04:22:09;;;;;;;41.28;15.55;;;;;;;3.53;84.42;100340.06;5105552;28;20038;-71
2020/12/10 04:24:34;;;;;;;24.67;10.82;;;;;;;3.60;83.71;100336.75;5105442;28;20738;-71
2020/12/10 04:27:00;;;;;;;46.88;19.70;;;;;;;3.35;84.99;100336.28;5104502;28;20403;-70
2020/12/10 04:29:25;;;;;;;26.50;10.07;;;;;;;3.59;84.03;100342.75;5105472;28;20016;-71
2020/12/10 04:31:50;;;;;;;47.15;16.30;;;;;;;3.41;84.73;100343.25;5105635;28;20032;-71
2020/12/10 04:34:16;;;;;;;47.03;19.60;;;;;;;3.44;84.52;100344.16;5105422;28;20170;-70
2020/12/10 04:36:41;;;;;;;24.75;10.98;;;;;;;3.59;84.02;100343.59;5105115;28;20504;-71
2020/12/10 04:39:07;;;;;;;36.83;17.00;;;;;;;3.42;84.62;100348.41;5105063;28;20020;-70
2020/12/10 04:41:35;;;;;;;40.17;17.58;;;;;;;3.35;84.74;100344.84;5105206;28;20020;-70
2020/12/10 04:44:00;;;;;;;33.67;13.60;;;;;;;3.44;84.81;100349.31;5103891;28;20019;-71
2020/12/10 04:46:26;;;;;;;49.40;20.35;;;;;;;3.37;85.27;100341.47;5105114;28;20351;-70
2020/12/10 04:48:53;;;;;;;47.92;19.77;;;;;;;3.36;85.47;100345.72;5105214;28;20020;-70
2020/12/10 04:51:21;;;;;;;38.42;16.77;;;;;;;3.46;84.84;100342.50;5105012;28;20034;-70
2020/12/10 04:53:46;;;;;;;43.70;17.88;;;;;;;3.44;84.90;100354.44;5086683;28;20028;-71
2020/12/10 04:56:14;;;;;;;39.80;16.05;;;;;;;3.43;85.11;100357.84;5105075;28;20018;-72
2020/12/10 04:58:41;;;;;;;44.45;19.38;;;;;;;3.45;84.91;100353.59;5104863;28;20056;-71
2020/12/10 05:01:06;;;;;;;48.22;19.90;;;;;;;3.45;85.24;100358.72;5104702;28;20023;-70
2020/12/10 05:03:32;;;;;;;30.13;14.48;;;;;;;3.49;85.17;100357.09;5104885;28;20089;-73
2020/12/10 05:06:08;;;;;;;30.20;12.52;;;;;;;3.59;84.35;100350.44;5104935;28;20024;-72
2020/12/10 05:08:34;;;;;;;32.30;13.63;;;;;;;3.80;83.23;100359.41;5104652;28;20020;-73
2020/12/10 05:10:59;;;;;;;33.80;16.00;;;;;;;3.69;82.68;100347.19;5104755;28;20024;-69
2020/12/10 05:13:25;;;;;;;43.05;18.95;;;;;;;3.44;83.90;100341.59;5104569;28;20073;-69
2020/12/10 05:15:51;;;;;;;38.78;16.33;;;;;;;3.48;84.46;100350.25;5104634;28;20078;-72
2020/12/10 05:18:17;;;;;;;30.10;11.90;;;;;;;3.53;84.25;100348.59;5104498;28;20384;-70
2020/12/10 05:20:44;;;;;;;41.22;19.08;;;;;;;3.46;84.57;100352.78;5103104;28;20024;-68
2020/12/10 05:23:10;;;;;;;46.50;20.35;;;;;;;3.49;84.53;100351.09;5104154;28;20099;-69
2020/12/10 05:25:48;;;;;;;39.13;16.58;;;;;;;3.50;84.26;100353.69;5103095;28;20081;-69
2020/12/10 05:28:13;;;;;;;44.33;19.83;;;;;;;3.46;84.16;100341.63;5104409;28;20024;-68
2020/12/10 05:30:40;;;;;;;40.10;16.83;;;;;;;3.54;84.25;100354.63;5104212;28;20031;-69
2020/12/10 05:33:11;;;;;;;37.88;18.58;;;;;;;3.57;83.67;100350.41;5104437;28;20482;-69
2020/12/10 05:35:36;;;;;;;42.17;19.10;;;;;;;3.50;84.23;100350.28;5102822;28;20099;-70
2020/12/10 05:38:10;;;;;;;26.42;11.32;;;;;;;3.51;84.46;100346.84;5103871;28;20263;-71
2020/12/10 05:40:36;;;;;;;31.83;13.80;;;;;;;3.52;84.41;100354.59;5104186;28;20055;-70
2020/12/10 05:43:03;;;;;;;46.63;17.92;;;;;;;3.51;84.25;100346.84;5104201;28;20089;-70
2020/12/10 05:45:29;;;;;;;40.90;19.13;;;;;;;3.47;84.68;100353.63;5104049;28;20027;-71
2020/12/10 05:47:59;;;;;;;45.42;20.80;;;;;;;3.51;84.32;100341.72;5103900;28;20020;-71
2020/12/10 05:50:29;;;;;;;37.83;16.45;;;;;;;3.61;83.59;100351.31;5103991;28;20076;-71
2020/12/10 05:53:05;;;;;;;34.67;15.30;;;;;;;3.55;83.79;100349.50;5103734;28;20099;-70
2020/12/10 05:55:32;;;;;;;40.00;17.08;;;;;;;3.52;84.08;100356.28;5103888;28;20084;-70
2020/12/10 05:57:59;;;;;;;41.42;18.50;;;;;;;3.50;84.33;100356.25;5103803;28;20020;-71
2020/12/10 06:00:24;;;;;;;45.65;20.13;;;;;;;3.45;83.96;100345.03;5103865;28;20035;-70
2020/12/10 06:02:51;;;;;;;50.03;18.88;;;;;;;3.56;83.88;100358.94;5103482;28;20055;-69
2020/12/10 06:05:20;;;;;;;37.95;13.77;;;;;;;3.39;84.53;100350.03;5103885;28;20028;-70
2020/12/10 06:07:57;;;;;;;47.85;19.33;;;;;;;3.52;84.42;100367.41;5103968;28;20028;-70
2020/12/10 06:10:24;;;;;;;42.03;17.17;;;;;;;3.70;83.37;100361.78;5103745;28;20020;-70
2020/12/10 06:12:51;;;;;;;36.13;15.57;;;;;;;3.55;83.73;100366.59;5103620;28;20072;-69
2020/12/10 06:15:25;;;;;;;33.67;15.02;;;;;;;3.49;83.85;100358.78;5103752;28;20016;-71
2020/12/10 06:18:10;;;;;;;29.10;11.75;;;;;;;3.53;83.88;100368.31;5103443;28;20020;-71
2020/12/10 06:20:41;;;;;;;40.53;18.42;;;;;;;3.50;84.05;100368.25;5102457;28;20027;-70
2020/12/10 06:23:25;;;;;;;46.35;16.75;;;;;;;3.58;83.41;100361.53;5103282;28;20016;-71
2020/12/10 06:25:54;;;;;;;44.20;19.33;;;;;;;3.52;83.83;100361.41;5103498;28;20076;-70
2020/12/10 06:28:22;;;;;;;40.85;17.42;;;;;;;3.47;83.96;100349.38;5101955;28;20035;-70
2020/12/10 06:31:03;;;;;;;26.92;10.70;;;;;;;3.70;83.14;100361.78;5103646;28;20088;-70
2020/12/10 06:33:42;;;;;;;34.88;13.95;;;;;;;3.65;82.80;100360.84;5103546;28;20081;-78
2020/12/10 06:36:25;;;;;;;25.98;10.25;;;;;;;3.52;82.87;100340.88;5102260;28;20185;-70
2020/12/10 06:38:52;;;;;;;33.88;15.43;;;;;;;3.50;83.71;100363.09;5103610;28;20024;-71
2020/12/10 06:41:17;;;;;;;28.88;14.18;;;;;;;3.53;83.47;100365.72;5103492;28;20028;-71
2020/12/10 06:43:43;;;;;;;39.72;16.90;;;;;;;3.45;83.95;100363.84;5103481;28;20054;-70
2020/12/10 06:46:08;;;;;;;31.63;12.52;;;;;;;3.55;83.58;100358.91;5103387;28;20044;-70
2020/12/10 06:48:43;;;;;;;41.75;19.30;;;;;;;3.55;83.88;100367.47;5103324;28;20028;-72
2020/12/10 06:51:20;;;;;;;44.67;19.40;;;;;;;3.56;84.05;100378.63;5106450;28;20034;-71
2020/12/10 06:54:00;;;;;;;29.75;12.38;;;;;;;3.65;83.56;100383.94;5107188;28;20039;-70
2020/12/10 06:56:49;;;;;;;41.20;17.55;;;;;;;3.57;83.58;100381.22;5107268;28;20020;-70
2020/12/10 06:59:15;;;;;;;30.83;11.60;;;;;;;3.62;83.55;100383.00;5107222;28;20028;-70
2020/12/10 07:01:40;;;;;;;47.20;18.08;;;;;;;3.63;83.29;100389.88;5105600;28;20055;-70
2020/12/10 07:07:12;;;;;;;32.33;15.02;;;;;;;3.81;82.05;100377.41;5107177;28;20028;-69
2020/12/10 07:09:49;;;;;;;34.63;14.57;;;;;;;3.82;81.79;100371.41;5106802;28;20020;-69
2020/12/10 07:12:27;;;;;;;34.75;15.20;;;;;;;3.59;82.53;100383.81;5107121;28;20201;-70
2020/12/10 07:15:23;;;;;;;36.50;17.48;;;;;;;3.55;82.82;100387.16;5107120;28;20031;-70
2020/12/10 07:17:49;;;;;;;31.58;11.32;;;;;;;3.73;81.80;100386.66;5106713;28;20020;-66
2020/12/10 07:20:16;;;;;;;28.73;13.20;;;;;;;3.74;81.84;100392.66;5106849;28;20023;-72
2020/12/10 07:22:41;;;;;;;32.45;13.25;;;;;;;3.59;82.05;100387.22;5106321;28;20024;-72
2020/12/10 07:25:06;;;;;;;33.65;14.90;;;;;;;3.49;82.60;100387.03;5106131;28;20030;-73
2020/12/10 07:27:32;;;;;;;28.55;12.55;;;;;;;3.61;82.25;100392.41;5106104;28;20024;-72
2020/12/10 07:29:58;;;;;;;31.58;14.77;;;;;;;3.57;82.42;100394.06;5106298;28;20028;-72
2020/12/10 07:32:26;;;;;;;29.55;12.07;;;;;;;3.73;81.82;100399.50;5106346;28;20024;-71
2020/12/10 07:34:52;;;;;;;23.45;10.43;;;;;;;3.72;81.46;100403.75;5106356;28;20023;-72
2020/12/10 07:37:24;;;;;;;27.13;14.85;;;;;;;3.52;82.05;100393.09;5106516;28;20121;-72
2020/12/10 07:39:49;;;;;;;;;;;;;;;3.58;82.24;100402.59;5106397;28;20032;-72
2020/12/10 07:42:19;;;;;;;32.05;14.00;;;;;;;3.59;82.13;100401.78;5106361;28;19919;-71
2020/12/10 07:44:47;;;;;;;16.50;8.43;;;;;;;4.05;79.71;100403.50;5106466;28;20196;-70
2020/12/10 07:47:13;;;;;;;25.85;10.73;;;;;;;3.69;80.95;100401.13;5106404;28;20024;-70
2020/12/10 07:49:38;;;;;;;11.38;5.32;;;;;;;3.69;80.68;100393.41;5106348;28;20028;-69
2020/12/10 07:52:13;;;;;;;22.02;8.20;;;;;;;3.68;80.25;100403.66;5106158;28;20468;-69
2020/12/10 07:54:55;;;;;;;13.60;6.00;;;;;;;3.91;78.90;100396.44;5105737;28;20436;-68
2020/12/10 07:57:35;;;;;;;25.73;12.52;;;;;;;3.51;80.58;100398.19;5106187;28;20077;-70
2020/12/10 08:00:04;;;;;;;23.50;9.48;;;;;;;3.89;78.27;100387.81;5105816;28;20035;-70
2020/12/10 08:02:56;;;;;;;22.67;11.38;;;;;;;3.69;78.69;100398.56;5105837;28;20649;-69
2020/12/10 08:05:22;;;;;;;26.77;12.57;;;;;;;3.57;78.97;100393.19;5067591;28;20050;-70
2020/12/10 08:07:49;;;;;;;17.35;8.63;;;;;;;3.55;79.16;100397.41;5104671;28;20047;-70
2020/12/10 08:10:26;;;;;;;20.00;9.10;;;;;;;3.37;80.33;100391.06;5105587;28;20085;-70
2020/12/10 08:13:11;;;;;;;22.38;11.80;;;;;;;3.36;80.87;100399.59;5104638;28;20020;-68
2020/12/10 08:15:41;;;;;;;23.02;10.13;;;;;;;3.38;81.06;100394.50;5105708;28;20023;-69
2020/12/10 08:18:09;;;;;;;23.92;11.68;;;;;;;3.47;80.29;100393.00;5105552;28;20594;-69
2020/12/10 08:20:49;;;;;;;20.80;7.38;;;;;;;3.45;80.41;100404.09;5105674;28;20094;-70
2020/12/10 08:23:16;;;;;;;17.88;7.53;;;;;;;3.71;79.08;100399.47;5105061;28;20027;-68
2020/12/10 08:25:42;;;;;;;23.42;11.00;;;;;;;3.58;78.79;100406.06;5105474;28;20035;-70
2020/12/10 08:28:10;;;;;;;22.13;11.60;;;;;;;3.39;79.69;100407.38;5105272;28;20031;-69
2020/12/10 08:30:36;;;;;;;21.00;9.80;;;;;;;3.36;80.50;100409.88;5102498;28;20084;-69
2020/12/10 08:33:03;;;;;;;34.60;14.48;;;;;;;3.39;80.64;100407.38;5105450;28;20073;-69
2020/12/10 08:35:40;;;;;;;14.70;6.95;;;;;;;3.52;79.84;100411.06;5105585;28;20026;-68
2020/12/10 08:38:05;;;;;;;27.55;12.43;;;;;;;3.35;79.71;100401.28;5104765;28;20022;-69
2020/12/10 08:40:30;;;;;;;22.13;9.82;;;;;;;3.46;79.79;100403.25;5104741;28;20093;-69
2020/12/10 08:43:08;;;;;;;29.90;13.80;;;;;;;3.32;80.08;100410.66;5103478;28;20083;-70
2020/12/10 08:45:35;;;;;;;24.88;11.77;;;;;;;3.35;80.66;100410.72;5104726;28;20086;-69
2020/12/10 08:48:02;;;;;;;21.02;8.55;;;;;;;3.46;79.67;100404.13;5104814;28;20024;-69
2020/12/10 08:50:29;;;;;;;15.05;7.60;;;;;;;3.31;80.23;100406.34;5103948;28;20024;-69
2020/12/10 08:53:00;;;;;;;19.15;7.97;;;;;;;3.58;78.37;100411.19;5104615;28;20084;-71
2020/12/10 08:55:28;;;;;;;21.58;11.93;;;;;;;3.30;79.27;100408.06;5104905;28;20528;-70
2020/12/10 08:57:56;;;;;;;17.52;8.43;;;;;;;3.66;77.03;100400.22;5104028;28;20035;-69
2020/12/10 09:00:21;;;;;;;19.95;7.97;;;;;;;3.38;78.49;100405.66;5104347;28;20028;-70
2020/12/10 09:02:47;;;;;;;22.05;11.13;;;;;;;3.18;79.24;100400.09;5104841;28;20097;-69
2020/12/10 09:05:12;;;;;;;15.90;8.13;;;;;;;3.42;77.37;100397.16;5104885;28;20089;-69
2020/12/10 09:07:37;;;;;;;19.65;9.57;;;;;;;3.13;79.16;100401.69;5104645;28;20023;-70
2020/12/10 09:10:06;;;;;;;14.10;5.85;;;;;;;3.28;79.10;100404.56;5103830;28;20042;-69
2020/12/10 09:12:31;;;;;;;20.40;10.15;;;;;;;3.22;78.82;100396.75;5103944;28;20020;-72
2020/12/10 09:15:02;;;;;;;12.90;5.93;;;;;;;3.60;76.58;100398.38;5104347;28;20036;-68
2020/12/10 09:17:28;;;;;;;17.17;7.93;;;;;;;3.52;76.21;100410.19;5104659;28;20027;-71
2020/12/10 09:19:53;;;;;;;23.23;9.88;;;;;;;3.30;77.22;100407.19;5104287;28;20466;-70
2020/12/10 09:22:19;;;;;;;14.82;6.70;;;;;;;3.45;76.40;100406.66;5104622;28;20540;-70
2020/12/10 09:24:47;;;;;;;12.23;5.30;;;;;;;3.30;77.14;100387.53;5104452;28;20331;-69
2020/12/10 09:27:17;;;;;;;14.90;6.35;;;;;;;3.26;77.55;100395.13;5104558;28;20039;-71
2020/12/10 09:29:46;;;;;;;23.60;10.05;;;;;;;3.17;77.91;100399.22;5104507;28;20020;-70
2020/12/10 09:32:14;;;;;;;11.38;6.03;;;;;;;3.22;77.52;100400.19;5104578;28;20030;-72
2020/12/10 09:34:39;;;;;;;20.83;10.32;;;;;;;3.17;78.00;100398.34;5103298;28;20051;-71
2020/12/10 09:37:05;;;;;;;21.45;9.38;;;;;;;3.12;78.45;100395.69;5103201;28;20024;-71
2020/12/10 09:39:36;;;;;;;19.75;10.05;;;;;;;3.06;78.94;100400.69;5103470;28;20024;-72
2020/12/10 09:42:05;;;;;;;21.67;11.27;;;;;;;3.08;78.96;100399.88;5102847;28;20087;-72
2020/12/10 09:44:34;;;;;;;25.98;12.02;;;;;;;3.03;79.22;100400.59;5104216;28;20032;-73
2020/12/10 09:46:59;;;;;;;25.98;12.90;;;;;;;3.02;79.27;100398.88;5104081;28;20026;-72
2020/12/10 09:49:25;;;;;;;12.55;5.75;;;;;;;3.33;77.73;100396.97;5104112;28;20055;-71
2020/12/10 09:51:53;;;;;;;21.85;9.63;;;;;;;3.09;78.28;100398.19;5104158;28;20016;-71
2020/12/10 09:59:31;;;;;;;21.92;9.95;;;;;;;2.98;78.88;100397.94;5103800;28;20035;-71
2020/12/10 10:01:59;;;;;;;21.92;9.65;;;;;;;2.96;79.08;100394.47;5102612;28;20132;-70
2020/12/10 10:04:25;;;;;;;11.90;5.32;;;;;;;3.16;77.71;100382.09;5103709;28;20050;-70
2020/12/10 10:06:50;;;;;;;20.27;9.20;;;;;;;3.10;77.65;100394.75;5103818;28;20024;-70
2020/12/10 10:09:16;;;;;;;21.45;8.55;;;;;;;3.09;77.50;100395.59;5103680;28;20085;-70
2020/12/10 10:11:46;;;;;;;17.20;7.75;;;;;;;3.06;77.51;100403.25;5103662;28;20538;-72
2020/12/10 10:14:12;;;;;;;20.42;9.55;;;;;;;3.00;78.07;100390.28;5102453;28;20030;-70
2020/12/10 10:16:37;;;;;;;18.80;9.75;;;;;;;3.13;78.01;100405.09;5102356;28;20118;-72
2020/12/10 10:19:03;;;;;;;19.73;9.25;;;;;;;3.02;78.38;100397.16;5103650;28;20042;-72
2020/12/10 10:21:28;;;;;;;12.10;5.38;;;;;;;3.10;78.29;100389.63;5103772;28;20024;-70
2020/12/10 10:23:55;;;;;;;20.50;8.60;;;;;;;3.05;77.36;100369.00;5103371;28;20076;-73
2020/12/10 10:26:21;;;;;;;17.27;8.55;;;;;;;3.09;77.27;100377.66;5107694;28;20027;-71
2020/12/10 10:28:48;;;;;;;8.88;4.40;;;;;;;3.15;77.39;100379.47;5107687;28;20020;-75
2020/12/10 10:31:17;;;;;;;16.85;7.70;;;;;;;3.05;78.07;100383.56;5107916;28;20034;-74
2020/12/10 10:33:42;;;;;;;14.55;7.13;;;;;;;3.24;76.66;100374.56;5106819;28;20028;-76
2020/12/10 10:36:09;;;;;;;14.52;6.60;;;;;;;3.39;75.88;100376.56;5106355;28;20119;-73
2020/12/10 10:38:35;;;;;;;11.07;4.45;;;;;;;3.14;77.08;100378.63;5107200;28;20016;-75
2020/12/10 10:41:00;;;;;;;14.48;6.50;;;;;;;3.14;77.18;100382.88;5106081;28;20016;-70
2020/12/10 10:43:25;;;;;;;16.50;8.63;;;;;;;3.07;77.42;100372.50;5107573;28;20030;-69
2020/12/10 10:45:51;;;;;;;14.43;6.03;;;;;;;3.02;77.77;100383.50;5107539;28;20032;-70
2020/12/10 10:48:16;;;;;;;22.98;9.45;;;;;;;3.03;78.01;100387.78;5107334;28;20024;-70
2020/12/10 10:50:42;;;;;;;15.57;7.15;;;;;;;3.01;78.40;100359.53;5107309;28;20027;-69
2020/12/10 10:53:08;;;;;;;11.77;5.43;;;;;;;3.13;77.49;100368.34;5107388;28;20020;-70
2020/12/10 10:55:33;;;;;;;15.60;5.63;;;;;;;3.22;77.07;100379.66;5107454;28;20036;-70
2020/12/10 10:57:58;;;;;;;23.83;10.82;;;;;;;3.01;77.95;100374.03;5107123;28;20036;-70
2020/12/10 11:00:27;;;;;;;17.05;8.27;;;;;;;3.02;78.20;100374.06;5105582;28;20587;-71
2020/12/10 11:02:53;;;;;;;19.67;9.50;;;;;;;3.03;78.72;100374.97;5105948;28;20067;-71
2020/12/10 11:05:18;;;;;;;18.75;10.13;;;;;;;3.13;78.22;100374.31;5107297;28;20028;-69
2020/12/10 11:07:44;;;;;;;18.75;7.68;;;;;;;3.06;78.52;100373.34;5107269;28;20103;-69
2020/12/10 11:10:13;;;;;;;17.65;6.35;;;;;;;3.09;78.97;100365.72;5107047;28;20046;-69
2020/12/10 11:12:41;;;;;;;19.23;6.18;;;;;;;3.23;77.88;100372.81;5105876;28;20520;-70
2020/12/10 11:15:06;;;;;;;7.78;3.83;;;;;;;3.24;78.04;100373.69;5107245;28;20024;-70
2020/12/10 11:17:32;;;;;;;9.75;5.03;;;;;;;3.33;77.03;100366.19;5107208;28;20042;-71
2020/12/10 11:19:57;;;;;;;18.63;6.68;;;;;;;3.20;77.56;100365.06;5105543;28;20051;-69
2020/12/10 11:22:23;;;;;;;17.38;7.57;;;;;;;3.07;78.26;100369.94;5105691;28;20028;-70
2020/12/10 11:24:48;;;;;;;17.17;8.52;;;;;;;3.00;78.93;100372.31;5105462;28;20027;-73
2020/12/10 11:27:14;;;;;;;18.90;8.52;;;;;;;3.08;78.83;100365.66;5106942;28;20024;-72
2020/12/10 11:29:39;;;;;;;21.45;9.68;;;;;;;3.11;78.99;100355.47;5107208;28;20032;-72